createdAt,value
2022-12-15T00:00:39.564Z,13.98
2022-12-15T00:03:30.351Z,14.10
2022-12-15T00:06:21.726Z,14.50
2022-12-15T00:09:14.412Z,14.43
2022-12-15T00:12:05.702Z,13.77
2022-12-15T00:14:56.126Z,14.55
2022-12-15T00:17:47.091Z,14.32
2022-12-15T00:20:37.343Z,20.90
2022-12-15T00:23:30.947Z,15.45
2022-12-15T00:26:21.967Z,13.98
2022-12-15T00:29:12.732Z,13.68
2022-12-15T00:32:02.756Z,12.70
2022-12-15T00:34:53.542Z,11.60
2022-12-15T00:37:43.726Z,13.05
2022-12-15T00:40:16.255Z,13.85
2022-12-15T00:42:49.513Z,13.05
2022-12-15T00:45:42.218Z,14.23
2022-12-15T00:48:14.496Z,13.50
2022-12-15T00:50:52.574Z,14.20
2022-12-15T00:53:43.440Z,15.35
2022-12-15T00:56:34.161Z,12.82
2022-12-15T00:59:24.876Z,13.93
2022-12-15T01:02:16.289Z,14.07
2022-12-15T01:05:06.673Z,14.75
2022-12-15T01:07:57.521Z,15.07
2022-12-15T01:10:47.834Z,14.93
2022-12-15T01:13:38.875Z,15.82
2022-12-15T01:16:33.906Z,14.03
2022-12-15T01:19:27.214Z,14.45
2022-12-15T01:21:59.774Z,14.98
2022-12-15T01:24:32.003Z,16.13
2022-12-15T01:27:04.471Z,14.23
2022-12-15T01:29:36.328Z,16.30
2022-12-15T01:32:09.335Z,16.33
2022-12-15T01:34:41.306Z,17.02
2022-12-15T01:37:13.852Z,16.55
2022-12-15T01:40:04.174Z,16.67
2022-12-15T01:42:36.476Z,15.17
2022-12-15T01:45:27.029Z,16.67
2022-12-15T01:48:10.616Z,16.85
2022-12-15T01:51:07.428Z,14.98
2022-12-15T01:53:52.275Z,15.35
2022-12-15T01:56:26.540Z,16.87
2022-12-15T01:59:02.517Z,15.90
2022-12-15T02:01:34.821Z,16.15
2022-12-15T02:04:09.110Z,17.42
2022-12-15T02:06:41.018Z,18.25
2022-12-15T02:09:14.166Z,17.40
2022-12-15T02:12:41.465Z,16.85
2022-12-15T02:15:49.447Z,17.83
2022-12-15T02:19:07.862Z,17.60
2022-12-15T02:22:25.482Z,17.92
2022-12-15T02:25:23.018Z,18.87
2022-12-15T02:28:08.815Z,18.95
2022-12-15T02:31:32.297Z,21.13
2022-12-15T02:34:15.246Z,19.65
2022-12-15T02:36:52.214Z,17.77
2022-12-15T02:39:25.761Z,19.93
2022-12-15T02:41:58.046Z,19.00
2022-12-15T02:44:44.074Z,19.33
2022-12-15T02:47:54.067Z,22.00
2022-12-15T02:50:40.871Z,21.38
2022-12-15T02:53:57.984Z,22.63
2022-12-15T02:56:53.876Z,18.75
2022-12-15T02:59:55.850Z,20.23
2022-12-15T03:02:31.109Z,19.85
2022-12-15T03:05:04.457Z,20.40
2022-12-15T03:07:36.762Z,20.23
2022-12-15T03:10:11.207Z,20.20
2022-12-15T03:12:44.006Z,19.83
2022-12-15T03:15:16.424Z,18.85
2022-12-15T03:17:49.265Z,19.70
2022-12-15T03:20:21.616Z,19.20
2022-12-15T03:22:53.855Z,18.77
2022-12-15T03:25:26.546Z,19.40
2022-12-15T03:27:58.418Z,18.67
2022-12-15T03:30:31.162Z,18.33
2022-12-15T03:33:03.084Z,19.30
2022-12-15T03:35:35.823Z,18.58
2022-12-15T03:38:08.158Z,19.95
2022-12-15T03:40:40.068Z,19.35
2022-12-15T03:43:12.563Z,19.95
2022-12-15T03:45:44.486Z,20.47
2022-12-15T03:48:17.281Z,19.80
2022-12-15T03:50:50.466Z,19.67
2022-12-15T03:53:22.429Z,18.73
2022-12-15T03:55:55.273Z,18.20
2022-12-15T03:58:27.542Z,20.30
2022-12-15T04:00:59.453Z,20.70
2022-12-15T04:03:32.550Z,20.42
2022-12-15T04:06:05.223Z,20.17
2022-12-15T04:08:38.044Z,21.60
2022-12-15T04:11:09.928Z,21.07
2022-12-15T04:13:43.293Z,20.38
2022-12-15T04:16:19.834Z,21.20
2022-12-15T04:19:12.682Z,20.85
2022-12-15T04:21:44.563Z,20.55
2022-12-15T04:24:35.553Z,21.87
2022-12-15T04:27:25.792Z,22.10
2022-12-15T04:30:16.958Z,21.65
2022-12-15T04:33:07.708Z,21.42
2022-12-15T04:35:58.995Z,22.83
2022-12-15T04:38:50.535Z,22.10
2022-12-15T04:41:43.564Z,22.30
2022-12-15T04:44:34.279Z,22.45
2022-12-15T04:47:24.698Z,22.23
2022-12-15T04:50:15.761Z,21.27
2022-12-15T04:53:06.440Z,22.03
2022-12-15T04:55:57.622Z,22.08
2022-12-15T04:58:47.870Z,21.27
2022-12-15T05:01:39.324Z,22.13
2022-12-15T05:04:30.794Z,21.05
2022-12-15T05:07:21.249Z,21.07
2022-12-15T05:10:15.153Z,20.05
2022-12-15T05:13:05.994Z,18.95
2022-12-15T05:15:57.371Z,19.85
2022-12-15T05:18:48.178Z,19.88
2022-12-15T05:21:39.217Z,18.13
2022-12-15T05:24:29.364Z,19.38
2022-12-15T05:27:20.505Z,20.50
2022-12-15T05:30:11.203Z,21.33
2022-12-15T05:32:43.477Z,19.85
2022-12-15T05:35:16.992Z,20.30
2022-12-15T05:37:48.965Z,19.98
2022-12-15T05:40:21.673Z,22.17
2022-12-15T05:42:53.544Z,21.50
2022-12-15T05:45:28.346Z,21.55
2022-12-15T05:48:00.665Z,19.47
2022-12-15T05:50:32.624Z,20.30
2022-12-15T05:53:05.353Z,20.05
2022-12-15T05:55:37.203Z,20.20
2022-12-15T06:01:26.299Z,17.70
2022-12-15T06:06:52.446Z,21.48
2022-12-15T06:09:24.284Z,22.98
2022-12-15T06:11:56.578Z,21.17
2022-12-15T06:14:28.503Z,25.80
2022-12-15T06:17:01.481Z,23.92
2022-12-15T06:19:33.869Z,25.10
2022-12-15T06:22:06.179Z,24.85
2022-12-15T06:24:39.459Z,25.90
2022-12-15T06:27:11.358Z,26.30
2022-12-15T06:29:44.050Z,25.50
2022-12-15T06:32:18.434Z,24.27
2022-12-15T06:34:51.100Z,23.15
2022-12-15T06:37:23.384Z,24.67
2022-12-15T06:39:55.317Z,23.57
2022-12-15T06:42:28.587Z,24.70
2022-12-15T06:45:01.020Z,23.83
2022-12-15T06:47:32.904Z,25.92
2022-12-15T06:50:05.957Z,26.98
2022-12-15T06:52:37.809Z,26.70
2022-12-15T06:55:10.549Z,24.50
2022-12-15T06:57:42.395Z,24.83
2022-12-15T07:00:16.089Z,24.25
2022-12-15T07:02:50.111Z,25.23
2022-12-15T07:05:23.223Z,25.97
2022-12-15T07:07:55.099Z,24.80
2022-12-15T07:10:28.474Z,27.90
2022-12-15T07:13:00.392Z,24.55
2022-12-15T07:15:33.196Z,26.67
2022-12-15T07:18:07.012Z,27.30
2022-12-15T07:20:39.374Z,26.00
2022-12-15T07:23:12.092Z,25.90
2022-12-15T07:25:43.953Z,28.65
2022-12-15T07:28:20.053Z,27.33
2022-12-15T07:31:02.534Z,25.30
2022-12-15T07:33:36.890Z,25.98
2022-12-15T07:36:09.054Z,25.60
2022-12-15T07:38:41.887Z,25.90
2022-12-15T07:41:13.828Z,26.35
2022-12-15T07:43:48.197Z,30.13
2022-12-15T07:46:21.955Z,27.65
2022-12-15T07:48:54.555Z,28.10
2022-12-15T07:51:27.733Z,27.05
2022-12-15T07:54:00.874Z,27.50
2022-12-15T07:56:38.909Z,28.97
2022-12-15T07:59:11.959Z,26.20
2022-12-15T08:01:44.217Z,28.55
2022-12-15T08:04:20.477Z,26.90
2022-12-15T08:06:54.622Z,25.90
2022-12-15T08:09:27.390Z,28.33
2022-12-15T08:12:00.361Z,27.50
2022-12-15T08:14:34.338Z,26.58
2022-12-15T08:17:06.500Z,27.85
2022-12-15T08:19:39.859Z,27.23
2022-12-15T08:22:15.453Z,26.80
2022-12-15T08:24:49.059Z,28.10
2022-12-15T08:27:22.441Z,29.65
2022-12-15T08:29:54.731Z,29.98
2022-12-15T08:32:27.611Z,27.58
2022-12-15T08:34:59.476Z,28.53
2022-12-15T08:37:32.204Z,27.88
2022-12-15T08:40:05.375Z,27.13
2022-12-15T08:42:38.535Z,28.00
2022-12-15T08:45:14.964Z,27.23
2022-12-15T08:47:46.901Z,30.00
2022-12-15T08:50:19.602Z,26.88
2022-12-15T08:53:21.353Z,29.20
2022-12-15T08:55:45.052Z,15.95
2022-12-15T08:58:18.298Z,34.30
2022-12-15T09:00:50.271Z,30.60
2022-12-15T09:03:23.861Z,28.08
2022-12-15T09:05:57.552Z,28.65
2022-12-15T09:08:31.342Z,29.58
2022-12-15T09:11:06.442Z,30.60
2022-12-15T09:13:39.291Z,29.50
2022-12-15T09:16:15.983Z,29.83
2022-12-15T09:18:51.619Z,32.55
2022-12-15T09:21:28.063Z,30.25
2022-12-15T09:24:02.168Z,29.15
2022-12-15T09:26:35.362Z,29.60
2022-12-15T09:29:07.629Z,28.58
2022-12-15T09:31:40.479Z,28.98
2022-12-15T09:34:16.474Z,29.33
2022-12-15T09:36:48.421Z,27.52
2022-12-15T09:39:21.743Z,28.43
2022-12-15T09:41:59.348Z,29.30
2022-12-15T09:44:33.244Z,30.15
2022-12-15T09:47:45.321Z,30.90
2022-12-15T09:50:24.563Z,30.92
2022-12-15T09:53:01.582Z,30.80
2022-12-15T09:55:34.386Z,30.23
2022-12-15T09:58:50.589Z,29.08
2022-12-15T10:01:51.362Z,30.85
2022-12-15T10:04:58.732Z,31.23
2022-12-15T10:07:39.930Z,31.50
2022-12-15T10:10:41.206Z,30.85
2022-12-15T10:13:24.094Z,26.48
2022-12-15T10:16:03.887Z,28.48
2022-12-15T10:18:50.535Z,32.00
2022-12-15T10:21:28.635Z,32.37
2022-12-15T10:24:59.711Z,29.83
2022-12-15T10:27:46.489Z,29.60
2022-12-15T10:30:22.154Z,30.88
2022-12-15T10:33:22.893Z,32.83
2022-12-15T10:35:56.293Z,32.60
2022-12-15T10:38:42.385Z,30.90
2022-12-15T10:41:18.194Z,31.67
2022-12-15T10:43:52.387Z,30.73
2022-12-15T10:46:28.103Z,33.17
2022-12-15T10:49:06.868Z,33.40
2022-12-15T10:51:53.917Z,34.13
2022-12-15T10:54:37.347Z,33.30
2022-12-15T10:57:31.707Z,33.80
2022-12-15T11:00:16.053Z,35.47
2022-12-15T11:02:48.051Z,30.43
2022-12-15T11:05:20.682Z,30.10
2022-12-15T11:08:14.698Z,33.05
2022-12-15T11:11:17.995Z,31.55
2022-12-15T11:14:10.291Z,34.22
2022-12-15T11:16:59.276Z,32.67
2022-12-15T11:19:49.422Z,32.55
2022-12-15T11:22:50.632Z,28.98
2022-12-15T11:25:42.465Z,32.05
2022-12-15T11:28:20.704Z,32.85
2022-12-15T11:31:29.810Z,30.20
2022-12-15T11:34:01.729Z,32.28
2022-12-15T11:37:36.519Z,31.85
2022-12-15T11:40:39.680Z,30.58
2022-12-15T11:43:11.445Z,31.95
2022-12-15T11:46:17.664Z,32.90
2022-12-15T11:48:56.553Z,32.13
2022-12-15T11:51:53.556Z,32.85
2022-12-15T11:54:53.591Z,32.30
2022-12-15T11:58:09.509Z,32.20
2022-12-15T12:01:01.491Z,33.70
2022-12-15T12:04:13.328Z,30.60
2022-12-15T12:06:59.151Z,32.47
2022-12-15T12:09:37.473Z,31.95
2022-12-15T12:12:34.565Z,31.70
2022-12-15T12:15:15.915Z,33.60
2022-12-15T12:18:12.991Z,33.00
2022-12-15T12:21:11.258Z,32.05
2022-12-15T12:23:53.975Z,31.83
2022-12-15T12:26:26.815Z,31.33
2022-12-15T12:29:18.233Z,31.67
2022-12-15T12:32:10.285Z,34.45
2022-12-15T12:35:30.982Z,33.13
2022-12-15T12:38:08.845Z,32.45
2022-12-15T12:40:40.996Z,34.80
2022-12-15T12:43:32.886Z,37.63
2022-12-15T12:46:14.737Z,34.97
2022-12-15T12:48:51.001Z,33.58
2022-12-15T12:51:41.316Z,32.63
2022-12-15T12:54:34.686Z,33.47
2022-12-15T12:57:12.708Z,31.73
2022-12-15T12:59:57.335Z,30.52
2022-12-15T13:02:30.912Z,33.55
2022-12-15T13:05:27.355Z,33.72
2022-12-15T13:08:05.355Z,35.45
2022-12-15T13:10:41.183Z,34.07
2022-12-15T13:13:31.901Z,32.63
2022-12-15T13:16:40.100Z,34.33
2022-12-15T13:19:13.655Z,33.85
2022-12-15T13:21:53.123Z,35.25
2022-12-15T13:24:41.326Z,34.30
2022-12-15T13:27:15.627Z,35.28
2022-12-15T13:30:07.941Z,35.22
2022-12-15T13:32:46.450Z,34.50
2022-12-15T13:35:19.711Z,36.38
2022-12-15T13:38:02.879Z,34.40
2022-12-15T13:40:35.579Z,36.05
2022-12-15T13:43:31.885Z,37.10
2022-12-15T13:46:23.651Z,35.67
2022-12-15T13:49:37.341Z,35.60
2022-12-15T13:53:17.929Z,36.87
2022-12-15T13:55:59.365Z,36.70
2022-12-15T13:58:41.661Z,35.00
2022-12-15T14:01:31.811Z,33.13
2022-12-15T14:04:20.199Z,33.47
2022-12-15T14:07:00.257Z,32.37
2022-12-15T14:09:42.435Z,34.47
2022-12-15T14:12:14.571Z,33.45
2022-12-15T14:14:49.351Z,32.78
2022-12-15T14:17:22.033Z,34.03
2022-12-15T14:19:54.626Z,32.03
2022-12-15T14:22:30.483Z,33.50
2022-12-15T14:25:24.382Z,36.08
2022-12-15T14:27:57.201Z,37.22
2022-12-15T14:30:33.848Z,37.08
2022-12-15T14:33:15.013Z,36.17
2022-12-15T14:35:51.866Z,37.13
2022-12-15T14:38:42.451Z,35.90
2022-12-15T14:41:25.916Z,36.00
2022-12-15T14:44:31.416Z,37.17
2022-12-15T14:46:58.973Z,35.10
2022-12-15T14:49:38.430Z,33.83
2022-12-15T14:52:39.299Z,36.60
2022-12-15T14:55:35.176Z,35.78
2022-12-15T14:58:40.836Z,36.53
2022-12-15T15:01:41.144Z,35.60
2022-12-15T15:04:32.578Z,38.83
2022-12-15T15:07:14.308Z,35.55
2022-12-15T15:09:46.957Z,34.38
2022-12-15T15:12:23.262Z,37.35
2022-12-15T15:15:03.971Z,36.70
2022-12-15T15:17:48.856Z,38.10
2022-12-15T15:20:29.543Z,37.15
2022-12-15T15:23:08.077Z,39.55
2022-12-15T15:25:52.456Z,40.22
2022-12-15T15:28:29.032Z,38.83
2022-12-15T15:31:08.004Z,35.90
2022-12-15T15:33:40.330Z,38.38
2022-12-15T15:36:14.324Z,38.50
2022-12-15T15:38:47.102Z,41.15
2022-12-15T15:41:32.441Z,39.40
2022-12-15T15:44:14.959Z,41.78
2022-12-15T15:46:51.285Z,41.35
2022-12-15T15:49:24.501Z,39.17
2022-12-15T15:51:57.186Z,42.05
2022-12-15T15:54:36.007Z,43.13
2022-12-15T15:57:16.411Z,43.65
2022-12-15T15:59:48.623Z,40.95
2022-12-15T16:02:21.080Z,42.17
2022-12-15T16:04:53.076Z,40.13
2022-12-15T16:07:29.173Z,38.80
2022-12-15T16:10:01.147Z,38.95
2022-12-15T16:12:51.686Z,39.63
2022-12-15T16:15:26.699Z,40.22
2022-12-15T16:17:59.570Z,40.63
2022-12-15T16:20:31.446Z,41.27
2022-12-15T16:23:24.367Z,41.03
2022-12-15T16:26:00.272Z,38.50
2022-12-15T16:28:33.273Z,43.05
2022-12-15T16:31:05.573Z,39.97
2022-12-15T16:33:38.121Z,38.90
2022-12-15T16:36:14.156Z,40.38
2022-12-15T16:38:47.064Z,38.53
2022-12-15T16:41:19.125Z,41.92
2022-12-15T16:43:51.669Z,41.58
2022-12-15T16:46:23.585Z,41.73
2022-12-15T16:48:56.169Z,38.53
2022-12-15T16:51:37.592Z,41.70
2022-12-15T16:54:24.444Z,40.63
2022-12-15T16:56:58.639Z,41.28
2022-12-15T16:59:33.406Z,44.87
2022-12-15T17:02:29.319Z,41.40
2022-12-15T17:05:01.587Z,42.30
2022-12-15T17:07:34.177Z,41.78
2022-12-15T17:10:07.233Z,43.35
2022-12-15T17:12:39.783Z,38.97
2022-12-15T17:15:26.190Z,42.92
2022-12-15T17:17:58.810Z,42.05
2022-12-15T17:20:31.660Z,44.67
2022-12-15T17:23:10.997Z,40.65
2022-12-15T17:26:20.958Z,42.27
2022-12-15T17:28:40.983Z,37.58
2022-12-15T17:31:27.651Z,39.88
2022-12-15T17:34:25.247Z,40.63
2022-12-15T17:37:03.393Z,41.55
2022-12-15T17:39:35.653Z,42.47
2022-12-15T17:42:20.180Z,40.80
2022-12-15T17:44:52.231Z,39.65
2022-12-15T17:47:25.346Z,39.78
2022-12-15T17:49:57.234Z,41.53
2022-12-15T17:52:34.783Z,42.83
2022-12-15T17:55:24.168Z,41.83
2022-12-15T17:57:56.731Z,42.10
2022-12-15T18:00:32.420Z,43.60
2022-12-15T18:03:05.268Z,42.80
2022-12-15T18:05:37.467Z,41.40
2022-12-15T18:08:20.235Z,40.78
2022-12-15T18:10:56.176Z,40.25
2022-12-15T18:13:35.574Z,39.70
2022-12-15T18:16:07.963Z,38.22
2022-12-15T18:18:40.631Z,40.30
2022-12-15T18:21:15.554Z,41.10
2022-12-15T18:23:49.599Z,38.63
2022-12-15T18:26:22.818Z,39.05
2022-12-15T18:28:55.431Z,37.63
2022-12-15T18:31:29.425Z,39.23
2022-12-15T18:34:04.663Z,38.85
2022-12-15T18:36:37.572Z,36.70
2022-12-15T18:39:17.533Z,35.75
2022-12-15T18:41:50.877Z,36.72
2022-12-15T18:44:28.906Z,38.20
2022-12-15T18:47:01.027Z,40.00
2022-12-15T18:49:33.605Z,40.50
2022-12-15T18:52:06.000Z,37.97
2022-12-15T18:54:38.937Z,39.70
2022-12-15T18:57:31.158Z,37.13
2022-12-15T19:00:29.672Z,36.78
2022-12-15T19:03:01.705Z,37.90
2022-12-15T19:05:34.457Z,36.80
2022-12-15T19:08:18.024Z,36.90
2022-12-15T19:11:01.568Z,37.10
2022-12-15T19:13:37.463Z,36.70
2022-12-15T19:16:20.205Z,35.30
2022-12-15T19:19:16.911Z,34.92
2022-12-15T19:22:08.285Z,38.35
2022-12-15T19:24:55.126Z,35.30
2022-12-15T19:27:27.814Z,37.38
2022-12-15T19:29:59.722Z,34.75
2022-12-15T19:32:32.216Z,36.20
2022-12-15T19:35:04.456Z,35.63
2022-12-15T19:37:41.050Z,36.90
2022-12-15T19:40:30.535Z,36.97
2022-12-15T19:43:04.529Z,36.65
2022-12-15T19:45:36.469Z,36.47
2022-12-15T19:48:11.605Z,39.08
2022-12-15T19:50:43.920Z,36.93
2022-12-15T19:53:30.866Z,35.38
2022-12-15T19:56:04.861Z,37.45
2022-12-15T19:58:37.374Z,34.70
2022-12-15T20:01:14.731Z,35.20
2022-12-15T20:03:52.414Z,36.10
2022-12-15T20:06:26.998Z,36.85
2022-12-15T20:09:00.138Z,38.60
2022-12-15T20:11:33.046Z,37.33
2022-12-15T20:14:14.371Z,36.00
2022-12-15T20:16:46.340Z,34.90
2022-12-15T20:19:18.974Z,34.70
2022-12-15T20:21:51.454Z,36.78
2022-12-15T20:24:24.016Z,34.40
2022-12-15T20:26:55.952Z,34.25
2022-12-15T20:29:31.492Z,34.53
2022-12-15T20:32:11.895Z,34.97
2022-12-15T20:34:45.330Z,35.45
2022-12-15T20:37:30.391Z,35.90
2022-12-15T20:40:03.378Z,36.55
2022-12-15T20:42:35.261Z,35.90
2022-12-15T20:45:07.964Z,37.75
2022-12-15T20:47:41.756Z,36.13
2022-12-15T20:50:36.373Z,37.22
2022-12-15T20:53:27.777Z,36.15
2022-12-15T20:56:00.410Z,36.00
2022-12-15T20:58:33.250Z,36.38
2022-12-15T21:01:36.610Z,36.67
2022-12-15T21:04:25.857Z,33.17
2022-12-15T21:06:58.229Z,34.65
2022-12-15T21:09:30.210Z,35.23
2022-12-15T21:12:07.444Z,37.45
2022-12-15T21:14:41.470Z,36.83
2022-12-15T21:17:23.013Z,37.28
2022-12-15T21:19:54.991Z,36.95
2022-12-15T21:22:28.046Z,37.73
2022-12-15T21:25:00.873Z,36.00
2022-12-15T21:27:33.474Z,35.85
2022-12-15T21:30:20.502Z,35.25
2022-12-15T21:32:53.224Z,34.38
2022-12-15T21:35:30.101Z,34.63
2022-12-15T21:38:05.131Z,35.10
2022-12-15T21:40:37.135Z,37.25
2022-12-15T21:43:11.395Z,33.50
2022-12-15T21:45:43.351Z,31.95
2022-12-15T21:48:34.591Z,35.33
2022-12-15T21:51:14.764Z,33.00
2022-12-15T21:53:47.427Z,33.15
2022-12-15T21:56:21.209Z,35.30
2022-12-15T21:58:54.968Z,34.03
2022-12-15T22:01:30.858Z,35.53
2022-12-15T22:04:11.244Z,33.83
2022-12-15T22:06:48.639Z,34.90
2022-12-15T22:09:23.067Z,34.78
2022-12-15T22:11:56.364Z,34.55
2022-12-15T22:14:33.917Z,33.27
2022-12-15T22:17:20.941Z,34.65
2022-12-15T22:19:53.530Z,34.20
2022-12-15T22:22:31.605Z,32.38
2022-12-15T22:25:04.994Z,31.08
2022-12-15T22:27:36.883Z,32.13
2022-12-15T22:30:27.758Z,28.70
2022-12-15T22:33:00.175Z,29.80
2022-12-15T22:35:32.739Z,27.00
2022-12-15T22:38:04.618Z,27.85
2022-12-15T22:40:37.099Z,27.80
2022-12-15T22:43:34.038Z,28.17
2022-12-15T22:46:10.906Z,27.15
2022-12-15T22:48:47.360Z,25.70
2022-12-15T22:51:20.121Z,25.90
2022-12-15T22:53:52.008Z,27.30
2022-12-15T22:56:27.289Z,25.67
2022-12-15T22:59:03.892Z,26.63
2022-12-15T23:01:36.417Z,27.83
2022-12-15T23:04:08.377Z,29.15
2022-12-15T23:06:41.450Z,28.03
2022-12-15T23:09:13.335Z,27.73
2022-12-15T23:11:45.987Z,27.75
2022-12-15T23:14:18.900Z,29.17
2022-12-15T23:16:51.370Z,28.10
2022-12-15T23:19:25.808Z,28.73
2022-12-15T23:21:58.715Z,31.73
2022-12-15T23:24:31.240Z,30.70
2022-12-15T23:27:03.901Z,31.52
2022-12-15T23:29:36.196Z,29.98
2022-12-15T23:32:08.678Z,31.97
2022-12-15T23:34:40.558Z,34.65
2022-12-15T23:37:13.076Z,33.40
2022-12-15T23:39:45.320Z,31.27
2022-12-15T23:42:17.881Z,33.92
2022-12-15T23:44:49.850Z,31.37
2022-12-15T23:47:22.394Z,29.73
2022-12-15T23:49:54.581Z,30.95
2022-12-15T23:52:29.052Z,29.63
2022-12-15T23:55:00.933Z,29.60
2022-12-15T23:57:34.611Z,31.27
